createdAt,value
2023-04-22T00:02:24.484Z,8.30
2023-04-22T00:04:51.688Z,8.30
2023-04-22T00:07:18.663Z,8.30
2023-04-22T00:09:46.037Z,8.30
2023-04-22T00:12:13.265Z,8.30
2023-04-22T00:14:40.543Z,8.30
2023-04-22T00:17:07.504Z,8.30
2023-04-22T00:19:35.085Z,8.20
2023-04-22T00:22:03.128Z,8.20
2023-04-22T00:24:30.301Z,8.10
2023-04-22T00:26:57.338Z,8.10
2023-04-22T00:29:26.021Z,8.00
2023-04-22T00:31:54.155Z,7.90
2023-04-22T00:34:21.444Z,7.80
2023-04-22T00:36:48.428Z,7.70
2023-04-22T00:39:15.453Z,7.70
2023-04-22T00:41:42.928Z,7.60
2023-04-22T00:44:11.185Z,7.60
2023-04-22T00:46:42.136Z,7.60
2023-04-22T00:49:09.399Z,7.60
2023-04-22T00:51:36.432Z,7.60
2023-04-22T00:54:04.675Z,7.60
2023-04-22T00:56:33.975Z,7.60
2023-04-22T00:59:01.060Z,7.60
2023-04-22T01:01:29.808Z,7.60
2023-04-22T01:03:57.368Z,7.50
2023-04-22T01:06:24.679Z,7.40
2023-04-22T01:08:51.616Z,7.40
2023-04-22T01:11:19.105Z,7.30
2023-04-22T01:13:46.597Z,7.30
2023-04-22T01:16:13.761Z,7.20
2023-04-22T01:18:40.788Z,7.30
2023-04-22T01:21:08.803Z,7.20
2023-04-22T01:23:35.954Z,7.30
2023-04-22T01:26:02.850Z,7.20
2023-04-22T01:28:29.723Z,7.20
2023-04-22T01:30:57.088Z,7.20
2023-04-22T01:33:24.303Z,7.20
2023-04-22T01:35:51.114Z,7.10
2023-04-22T01:38:18.258Z,7.10
2023-04-22T01:40:45.024Z,7.10
2023-04-22T01:43:11.974Z,7.00
2023-04-22T01:45:38.844Z,7.00
2023-04-22T01:48:08.715Z,6.90
2023-04-22T01:50:37.226Z,6.90
2023-04-22T01:53:04.230Z,6.90
2023-04-22T01:55:36.024Z,6.90
2023-04-22T01:58:04.307Z,6.90
2023-04-22T02:00:31.737Z,6.90
2023-04-22T02:02:58.724Z,6.90
2023-04-22T02:05:26.352Z,6.90
2023-04-22T02:07:53.625Z,6.90
2023-04-22T02:10:21.146Z,6.80
2023-04-22T02:12:48.257Z,6.70
2023-04-22T02:15:15.331Z,6.60
2023-04-22T02:17:43.585Z,6.50
2023-04-22T02:20:11.431Z,6.40
2023-04-22T02:22:39.485Z,6.50
2023-04-22T02:25:06.827Z,6.40
2023-04-22T02:27:33.883Z,6.50
2023-04-22T02:30:00.648Z,6.40
2023-04-22T02:32:27.497Z,6.50
2023-04-22T02:34:54.436Z,6.40
2023-04-22T02:37:22.871Z,6.40
2023-04-22T02:39:50.086Z,6.30
2023-04-22T02:42:17.038Z,6.30
2023-04-22T02:44:43.855Z,6.20
2023-04-22T02:47:11.502Z,6.20
2023-04-22T02:49:38.792Z,6.20
2023-04-22T02:52:06.152Z,6.20
2023-04-22T02:54:33.077Z,6.20
2023-04-22T02:56:59.977Z,6.20
2023-04-22T02:59:26.839Z,6.20
2023-04-22T03:01:53.710Z,6.20
2023-04-22T03:04:22.045Z,6.20
2023-04-22T03:06:49.857Z,6.20
2023-04-22T03:09:17.376Z,6.20
2023-04-22T03:11:44.640Z,6.20
2023-04-22T03:14:11.571Z,6.10
2023-04-22T03:16:38.703Z,6.10
2023-04-22T03:19:06.389Z,6.00
2023-04-22T03:21:33.175Z,6.00
2023-04-22T03:24:00.126Z,6.00
2023-04-22T03:26:26.918Z,5.90
2023-04-22T03:28:53.745Z,5.90
2023-04-22T03:31:21.569Z,5.90
2023-04-22T03:33:48.622Z,5.90
2023-04-22T03:36:16.590Z,5.80
2023-04-22T03:38:43.577Z,5.70
2023-04-22T03:41:10.465Z,5.60
2023-04-22T03:43:37.229Z,5.60
2023-04-22T03:46:04.167Z,5.60
2023-04-22T03:48:35.567Z,5.60
2023-04-22T03:51:02.893Z,5.60
2023-04-22T03:53:29.895Z,5.60
2023-04-22T03:55:56.677Z,5.50
2023-04-22T03:58:24.432Z,5.50
2023-04-22T04:00:51.453Z,5.50
2023-04-22T04:03:18.696Z,5.50
2023-04-22T04:05:45.638Z,5.60
2023-04-22T04:08:12.520Z,5.60
2023-04-22T04:10:39.348Z,5.70
2023-04-22T04:13:06.338Z,5.70
2023-04-22T04:15:34.065Z,5.80
2023-04-22T04:18:01.555Z,5.80
2023-04-22T04:20:28.721Z,5.90
2023-04-22T04:22:56.316Z,6.00
2023-04-22T04:25:23.656Z,6.10
2023-04-22T04:27:51.888Z,6.10
2023-04-22T04:30:19.717Z,6.20
2023-04-22T04:32:46.550Z,6.30
2023-04-22T04:35:14.302Z,6.40
2023-04-22T04:37:43.562Z,6.50
2023-04-22T04:40:12.383Z,6.50
2023-04-22T04:42:39.306Z,6.60
2023-04-22T04:45:09.245Z,6.70
2023-04-22T04:47:36.166Z,6.80
2023-04-22T04:50:04.403Z,6.90
2023-04-22T04:52:33.453Z,7.10
2023-04-22T04:55:00.333Z,7.20
2023-04-22T04:57:27.151Z,7.30
2023-04-22T04:59:53.990Z,7.40
2023-04-22T05:02:20.964Z,7.60
2023-04-22T05:04:48.063Z,7.70
2023-04-22T05:07:15.404Z,7.80
2023-04-22T05:09:42.524Z,7.90
2023-04-22T05:12:09.800Z,8.00
2023-04-22T05:14:36.606Z,8.10
2023-04-22T05:17:03.586Z,8.20
2023-04-22T05:19:30.302Z,8.20
2023-04-22T05:21:57.312Z,8.30
2023-04-22T05:24:24.384Z,8.40
2023-04-22T05:26:52.181Z,8.40
2023-04-22T05:29:20.162Z,8.50
2023-04-22T05:31:47.245Z,8.60
2023-04-22T05:34:14.426Z,8.70
2023-04-22T05:36:41.152Z,8.80
2023-04-22T05:39:08.684Z,8.90
2023-04-22T05:41:35.665Z,9.10
2023-04-22T05:44:02.697Z,9.20
2023-04-22T05:46:29.720Z,9.30
2023-04-22T05:48:56.825Z,9.40
2023-04-22T05:51:23.908Z,9.50
2023-04-22T05:53:51.296Z,9.60
2023-04-22T05:56:18.342Z,9.70
2023-04-22T05:58:45.320Z,9.80
2023-04-22T06:01:12.499Z,10.00
2023-04-22T06:03:39.831Z,10.10
2023-04-22T06:06:07.445Z,10.20
2023-04-22T06:08:34.580Z,10.30
2023-04-22T06:11:01.671Z,10.50
2023-04-22T06:13:28.462Z,10.60
2023-04-22T06:15:55.617Z,10.70
2023-04-22T06:18:22.503Z,10.90
2023-04-22T06:20:49.460Z,10.90
2023-04-22T06:23:16.293Z,11.00
2023-04-22T06:25:43.777Z,11.10
2023-04-22T06:28:13.557Z,11.30
2023-04-22T06:30:40.557Z,11.40
2023-04-22T06:33:07.548Z,11.50
2023-04-22T06:35:34.709Z,11.60
2023-04-22T06:38:02.622Z,11.80
2023-04-22T06:40:29.478Z,11.90
2023-04-22T06:42:56.270Z,12.10
2023-04-22T06:45:23.152Z,12.20
2023-04-22T06:47:51.970Z,12.40
2023-04-22T06:50:18.960Z,12.50
2023-04-22T06:52:46.226Z,12.60
2023-04-22T06:55:13.362Z,12.80
2023-04-22T06:57:40.488Z,12.90
2023-04-22T07:00:10.796Z,13.00
2023-04-22T07:02:37.994Z,13.20
2023-04-22T07:05:05.282Z,13.40
2023-04-22T07:07:32.181Z,13.50
2023-04-22T07:09:58.913Z,13.70
2023-04-22T07:12:26.366Z,13.80
2023-04-22T07:14:53.501Z,13.90
2023-04-22T07:17:22.512Z,14.10
2023-04-22T07:19:49.655Z,14.20
2023-04-22T07:22:16.438Z,14.40
2023-04-22T07:24:43.284Z,14.50
2023-04-22T07:27:11.098Z,14.60
2023-04-22T07:29:38.131Z,14.80
2023-04-22T07:32:05.267Z,14.90
2023-04-22T07:34:32.420Z,15.00
2023-04-22T07:36:59.558Z,15.10
2023-04-22T07:39:26.885Z,15.30
2023-04-22T07:41:53.853Z,15.40
2023-04-22T07:44:21.773Z,15.50
2023-04-22T07:46:49.033Z,15.60
2023-04-22T07:49:17.185Z,15.60
2023-04-22T07:51:45.408Z,15.70
2023-04-22T07:54:12.386Z,15.80
2023-04-22T07:56:39.333Z,15.80
2023-04-22T07:59:06.303Z,15.90
2023-04-22T08:01:33.286Z,16.00
2023-04-22T08:04:00.452Z,16.10
2023-04-22T08:06:28.194Z,16.10
2023-04-22T08:08:55.128Z,16.10
2023-04-22T08:11:22.040Z,16.20
2023-04-22T08:13:49.086Z,16.30
2023-04-22T08:16:16.154Z,16.40
2023-04-22T08:18:43.055Z,16.40
2023-04-22T08:21:10.077Z,16.50
2023-04-22T08:23:36.886Z,16.60
2023-04-22T08:26:04.164Z,16.60
2023-04-22T08:28:31.598Z,16.70
2023-04-22T08:30:58.733Z,16.60
2023-04-22T08:33:27.243Z,16.70
2023-04-22T08:35:54.566Z,16.70
2023-04-22T08:38:21.312Z,16.70
2023-04-22T08:40:48.651Z,16.80
2023-04-22T08:43:15.897Z,16.80
2023-04-22T08:45:43.145Z,16.90
2023-04-22T08:48:10.270Z,16.90
2023-04-22T08:50:39.449Z,17.00
2023-04-22T08:53:06.514Z,17.00
2023-04-22T08:55:35.370Z,17.10
2023-04-22T08:58:04.240Z,17.10
2023-04-22T09:00:32.334Z,17.10
2023-04-22T09:03:03.090Z,17.20
2023-04-22T09:05:32.548Z,17.20
2023-04-22T09:07:59.785Z,17.20
2023-04-22T09:10:26.734Z,17.20
2023-04-22T09:12:54.471Z,17.20
2023-04-22T09:15:21.646Z,17.20
2023-04-22T09:17:52.024Z,17.30
2023-04-22T09:20:19.927Z,17.30
2023-04-22T09:22:49.540Z,17.30
2023-04-22T09:25:27.008Z,17.30
2023-04-22T09:27:55.874Z,17.40
2023-04-22T09:30:28.177Z,17.40
2023-04-22T09:32:57.645Z,17.50
2023-04-22T09:35:36.463Z,17.50
2023-04-22T09:38:06.370Z,17.50
2023-04-22T09:40:34.253Z,17.50
2023-04-22T09:43:03.645Z,17.50
2023-04-22T09:45:33.111Z,17.60
2023-04-22T09:48:17.805Z,17.60
2023-04-22T09:50:46.962Z,17.70
2023-04-22T09:53:19.188Z,17.70
2023-04-22T09:55:49.144Z,17.70
2023-04-22T09:58:23.947Z,17.70
2023-04-22T10:00:54.807Z,17.80
2023-04-22T10:03:21.910Z,17.80
2023-04-22T10:05:49.167Z,17.80
2023-04-22T10:08:16.994Z,17.80
2023-04-22T10:10:44.442Z,17.90
2023-04-22T10:13:11.724Z,17.90
2023-04-22T10:15:57.820Z,17.90
2023-04-22T10:18:28.706Z,17.90
2023-04-22T10:20:57.882Z,17.90
2023-04-22T10:23:25.228Z,17.90
2023-04-22T10:25:56.277Z,17.90
2023-04-22T10:28:24.646Z,17.90
2023-04-22T10:30:51.870Z,17.90
2023-04-22T10:33:21.854Z,17.90
2023-04-22T10:36:10.464Z,17.90
2023-04-22T10:38:39.436Z,17.90
2023-04-22T10:41:06.518Z,17.90
2023-04-22T10:43:45.214Z,17.90
2023-04-22T10:46:32.136Z,18.00
2023-04-22T10:49:08.921Z,18.00
2023-04-22T10:52:01.139Z,18.00
2023-04-22T10:54:31.106Z,18.00
2023-04-22T10:57:07.087Z,18.00
2023-04-22T10:59:42.084Z,18.00
2023-04-22T11:02:09.875Z,18.00
2023-04-22T11:04:37.334Z,18.00
2023-04-22T11:07:28.154Z,18.00
2023-04-22T11:10:09.596Z,18.00
2023-04-22T11:12:39.426Z,18.00
2023-04-22T11:15:17.374Z,18.00
2023-04-22T11:17:46.641Z,18.00
2023-04-22T11:20:18.303Z,18.20
2023-04-22T11:22:47.847Z,18.30
2023-04-22T11:25:15.404Z,18.40
2023-04-22T11:27:43.740Z,18.50
2023-04-22T11:30:18.880Z,18.70
2023-04-22T11:32:48.270Z,18.90
2023-04-22T11:35:18.695Z,19.10
2023-04-22T11:37:48.030Z,19.30
2023-04-22T11:40:30.965Z,19.70
2023-04-22T11:43:01.524Z,20.00
2023-04-22T11:45:30.027Z,20.50
2023-04-22T11:47:57.169Z,21.20
2023-04-22T11:50:26.775Z,21.80
2023-04-22T11:52:58.846Z,22.40
2023-04-22T11:55:32.873Z,22.90
2023-04-22T11:58:07.622Z,23.50
2023-04-22T12:00:37.327Z,24.20
2023-04-22T12:03:08.065Z,24.60
2023-04-22T12:05:40.776Z,25.00
2023-04-22T12:08:11.832Z,25.70
2023-04-22T12:10:44.116Z,26.10
2023-04-22T12:13:18.634Z,26.40
2023-04-22T12:15:45.692Z,26.40
2023-04-22T12:18:12.844Z,26.60
2023-04-22T12:20:41.473Z,26.70
2023-04-22T12:23:15.466Z,27.20
2023-04-22T12:25:43.660Z,27.80
2023-04-22T12:28:11.199Z,28.40
2023-04-22T12:30:38.018Z,29.20
2023-04-22T12:33:04.815Z,29.80
2023-04-22T12:35:31.557Z,30.60
2023-04-22T12:37:58.580Z,31.30
2023-04-22T12:40:25.364Z,31.90
2023-04-22T12:42:52.121Z,32.30
2023-04-22T12:45:19.011Z,32.60
2023-04-22T12:47:47.045Z,33.00
2023-04-22T12:50:13.921Z,33.60
2023-04-22T12:52:40.735Z,34.20
2023-04-22T12:55:08.124Z,34.80
2023-04-22T12:57:35.546Z,35.30
2023-04-22T13:00:02.287Z,35.90
2023-04-22T13:02:29.091Z,36.30
2023-04-22T13:04:56.632Z,36.00
2023-04-22T13:07:23.396Z,35.90
2023-04-22T13:09:50.264Z,36.10
2023-04-22T13:12:16.972Z,35.90
2023-04-22T13:14:44.291Z,35.50
2023-04-22T13:17:11.489Z,35.20
2023-04-22T13:19:38.448Z,34.60
2023-04-22T13:22:05.278Z,33.90
2023-04-22T13:24:32.112Z,33.60
2023-04-22T13:26:59.035Z,33.60
2023-04-22T13:29:27.075Z,33.40
2023-04-22T13:31:53.844Z,32.90
2023-04-22T13:34:20.823Z,32.40
2023-04-22T13:36:47.739Z,32.30
2023-04-22T13:39:15.015Z,32.20
2023-04-22T13:41:42.188Z,32.10
2023-04-22T13:44:12.393Z,32.20
2023-04-22T13:46:39.812Z,32.20
2023-04-22T13:49:06.834Z,32.60
2023-04-22T13:51:33.765Z,32.90
2023-04-22T13:54:01.423Z,33.50
2023-04-22T13:56:29.203Z,33.80
2023-04-22T13:58:56.104Z,34.00
2023-04-22T14:01:23.037Z,33.90
2023-04-22T14:03:50.921Z,34.10
2023-04-22T14:06:19.402Z,33.90
2023-04-22T14:08:46.383Z,33.70
2023-04-22T14:11:13.562Z,33.50
2023-04-22T14:13:40.694Z,33.20
2023-04-22T14:16:09.761Z,32.90
2023-04-22T14:18:38.082Z,32.70
2023-04-22T14:21:07.777Z,32.30
2023-04-22T14:23:36.097Z,32.00
2023-04-22T14:26:03.116Z,31.60
2023-04-22T14:28:29.927Z,31.30
2023-04-22T14:30:57.125Z,31.10
2023-04-22T14:33:24.807Z,30.80
2023-04-22T14:35:52.595Z,30.50
2023-04-22T14:38:20.028Z,30.50
2023-04-22T14:40:47.437Z,30.80
2023-04-22T14:43:15.272Z,31.20
2023-04-22T14:45:41.995Z,31.70
2023-04-22T14:48:08.898Z,31.70
2023-04-22T14:50:35.993Z,31.40
2023-04-22T14:53:02.828Z,31.00
2023-04-22T14:55:31.286Z,30.70
2023-04-22T14:57:58.530Z,30.20
2023-04-22T15:00:26.114Z,30.00
2023-04-22T15:02:54.621Z,30.00
2023-04-22T15:05:23.484Z,29.90
2023-04-22T15:07:51.005Z,30.20
2023-04-22T15:10:18.028Z,30.30
2023-04-22T15:12:45.230Z,30.60
2023-04-22T15:15:16.811Z,30.80
2023-04-22T15:17:44.480Z,31.10
2023-04-22T15:20:12.264Z,31.30
2023-04-22T15:22:43.201Z,31.60
2023-04-22T15:25:10.931Z,31.40
2023-04-22T15:27:38.576Z,31.20
2023-04-22T15:30:06.574Z,31.20
2023-04-22T15:32:33.591Z,31.30
2023-04-22T15:35:00.919Z,31.30
2023-04-22T15:37:27.953Z,31.40
2023-04-22T15:39:54.682Z,31.40
2023-04-22T15:42:21.408Z,31.20
2023-04-22T15:44:48.094Z,30.50
2023-04-22T15:47:16.692Z,29.90
2023-04-22T15:49:44.266Z,29.20
2023-04-22T15:52:11.042Z,28.60
2023-04-22T15:54:37.749Z,28.10
2023-04-22T15:57:04.475Z,27.50
2023-04-22T15:59:31.154Z,26.80
2023-04-22T16:01:57.988Z,26.30
2023-04-22T16:04:25.049Z,25.90
2023-04-22T16:06:51.926Z,25.40
2023-04-22T16:09:19.334Z,25.00
2023-04-22T16:11:46.062Z,24.50
2023-04-22T16:14:12.787Z,24.00
2023-04-22T16:16:41.117Z,23.50
2023-04-22T16:19:08.345Z,23.00
2023-04-22T16:21:35.371Z,22.70
2023-04-22T16:24:02.249Z,22.40
2023-04-22T16:26:28.979Z,22.10
2023-04-22T16:28:55.851Z,21.90
2023-04-22T16:31:23.141Z,21.80
2023-04-22T16:33:53.412Z,21.60
2023-04-22T16:36:20.508Z,21.40
2023-04-22T16:38:47.288Z,21.30
2023-04-22T16:41:15.434Z,21.10
2023-04-22T16:43:42.234Z,20.90
2023-04-22T16:46:09.096Z,20.80
2023-04-22T16:48:36.048Z,20.70
2023-04-22T16:51:02.893Z,20.50
2023-04-22T16:53:30.578Z,20.40
2023-04-22T16:55:57.402Z,20.30
2023-04-22T16:58:24.342Z,20.20
2023-04-22T17:00:51.492Z,20.10
2023-04-22T17:03:18.435Z,20.00
2023-04-22T17:05:45.208Z,19.90
2023-04-22T17:08:11.969Z,19.80
2023-04-22T17:10:44.906Z,19.70
2023-04-22T17:13:13.488Z,19.60
2023-04-22T17:15:41.143Z,19.60
2023-04-22T17:18:08.078Z,19.50
2023-04-22T17:20:36.318Z,19.50
2023-04-22T17:23:04.106Z,19.40
2023-04-22T17:25:31.282Z,19.40
2023-04-22T17:27:58.558Z,19.30
2023-04-22T17:30:25.403Z,19.30
2023-04-22T17:32:52.253Z,19.20
2023-04-22T17:35:19.113Z,19.20
2023-04-22T17:37:45.891Z,19.10
2023-04-22T17:40:12.784Z,19.00
2023-04-22T17:42:45.971Z,19.00
2023-04-22T17:45:13.440Z,18.90
2023-04-22T17:47:40.316Z,18.90
2023-04-22T17:50:07.917Z,18.80
2023-04-22T17:52:34.670Z,18.70
2023-04-22T17:55:01.423Z,18.60
2023-04-22T17:57:28.493Z,18.50
2023-04-22T17:59:55.475Z,18.40
2023-04-22T18:02:22.496Z,18.30
2023-04-22T18:04:49.432Z,18.20
2023-04-22T18:07:16.576Z,18.00
2023-04-22T18:09:43.788Z,17.90
2023-04-22T18:12:10.745Z,17.80
2023-04-22T18:14:37.604Z,17.60
2023-04-22T18:17:04.560Z,17.50
2023-04-22T18:19:31.333Z,17.40
2023-04-22T18:22:00.335Z,17.20
2023-04-22T18:24:27.957Z,17.00
2023-04-22T18:26:54.726Z,16.90
2023-04-22T18:29:21.585Z,16.80
2023-04-22T18:31:48.690Z,16.60
2023-04-22T18:34:15.952Z,16.60
2023-04-22T18:36:42.810Z,16.50
2023-04-22T18:39:10.028Z,16.40
2023-04-22T18:41:38.647Z,16.30
2023-04-22T18:44:05.865Z,16.30
2023-04-22T18:46:32.919Z,16.20
2023-04-22T18:48:59.714Z,16.20
2023-04-22T18:51:27.704Z,16.10
2023-04-22T18:53:54.473Z,16.00
2023-04-22T18:56:21.311Z,15.90
2023-04-22T18:58:48.319Z,15.90
2023-04-22T19:01:15.094Z,15.80
2023-04-22T19:03:42.287Z,15.70
2023-04-22T19:06:09.142Z,15.70
2023-04-22T19:08:35.973Z,15.60
2023-04-22T19:11:02.728Z,15.50
2023-04-22T19:13:30.320Z,15.50
2023-04-22T19:15:57.698Z,15.30
2023-04-22T19:18:24.464Z,15.20
2023-04-22T19:20:51.280Z,15.00
2023-04-22T19:23:18.258Z,14.90
2023-04-22T19:25:44.948Z,14.90
2023-04-22T19:28:12.171Z,14.80
2023-04-22T19:30:38.963Z,14.80
2023-04-22T19:33:05.773Z,14.70
2023-04-22T19:35:32.623Z,14.70
2023-04-22T19:38:00.817Z,14.60
2023-04-22T19:40:27.773Z,14.60
2023-04-22T19:42:54.947Z,14.50
2023-04-22T19:45:21.758Z,14.50
2023-04-22T19:47:48.878Z,14.30
2023-04-22T19:50:16.679Z,14.30
2023-04-22T19:52:46.526Z,14.20
2023-04-22T19:55:13.741Z,14.20
2023-04-22T19:57:42.327Z,14.10
2023-04-22T20:00:11.165Z,14.10
2023-04-22T20:02:38.953Z,14.10
2023-04-22T20:05:06.476Z,14.00
2023-04-22T20:07:34.589Z,13.90
2023-04-22T20:10:05.845Z,13.80
2023-04-22T20:12:33.018Z,13.80
2023-04-22T20:15:00.133Z,13.70
2023-04-22T20:17:27.683Z,13.60
2023-04-22T20:19:55.353Z,13.50
2023-04-22T20:22:26.983Z,13.50
2023-04-22T20:25:03.819Z,13.40
2023-04-22T20:27:31.455Z,13.40
2023-04-22T20:29:59.306Z,13.30
2023-04-22T20:32:28.080Z,13.20
2023-04-22T20:34:56.085Z,13.20
2023-04-22T20:37:24.917Z,13.20
2023-04-22T20:39:53.074Z,13.10
2023-04-22T20:42:21.946Z,13.00
2023-04-22T20:44:48.813Z,13.00
2023-04-22T20:47:16.495Z,13.00
2023-04-22T20:49:43.921Z,13.00
2023-04-22T20:52:11.951Z,12.90
2023-04-22T20:54:39.790Z,12.90
2023-04-22T20:57:07.519Z,12.90
2023-04-22T20:59:35.513Z,12.80
2023-04-22T21:02:07.202Z,12.70
2023-04-22T21:04:34.885Z,12.70
2023-04-22T21:07:06.950Z,12.60
2023-04-22T21:09:34.586Z,12.50
2023-04-22T21:12:02.371Z,12.30
2023-04-22T21:14:29.818Z,12.30
2023-04-22T21:17:32.341Z,12.20
2023-04-22T21:19:59.904Z,12.10
2023-04-22T21:22:26.977Z,12.00
2023-04-22T21:24:54.190Z,11.90
2023-04-22T21:27:22.449Z,11.90
2023-04-22T21:29:50.052Z,11.80
2023-04-22T21:32:17.409Z,11.80
2023-04-22T21:34:45.134Z,11.80
2023-04-22T21:37:13.383Z,11.70
2023-04-22T21:39:40.757Z,11.70
2023-04-22T21:42:08.589Z,11.70
2023-04-22T21:44:36.822Z,11.70
2023-04-22T21:47:04.509Z,11.70
2023-04-22T21:49:31.621Z,11.70
2023-04-22T21:51:59.718Z,11.60
2023-04-22T21:54:26.670Z,11.60
2023-04-22T21:56:53.514Z,11.60
2023-04-22T21:59:20.427Z,11.60
2023-04-22T22:01:47.456Z,11.50
2023-04-22T22:04:16.160Z,11.50
2023-04-22T22:06:44.735Z,11.50
2023-04-22T22:09:12.679Z,11.50
2023-04-22T22:11:39.443Z,11.50
2023-04-22T22:14:06.304Z,11.40
2023-04-22T22:16:33.555Z,11.40
2023-04-22T22:19:02.752Z,11.40
2023-04-22T22:21:31.632Z,11.40
2023-04-22T22:23:58.625Z,11.30
2023-04-22T22:26:26.242Z,11.30
2023-04-22T22:28:53.156Z,11.30
2023-04-22T22:31:20.037Z,11.20
2023-04-22T22:33:47.025Z,11.20
2023-04-22T22:36:14.024Z,11.20
2023-04-22T22:38:40.801Z,11.20
2023-04-22T22:41:07.884Z,11.20
2023-04-22T22:43:34.811Z,11.20
2023-04-22T22:46:02.824Z,11.10
2023-04-22T22:48:30.104Z,11.20
2023-04-22T22:50:57.210Z,11.20
2023-04-22T22:53:24.045Z,11.30
2023-04-22T22:55:50.951Z,11.30
2023-04-22T22:58:17.721Z,11.30
2023-04-22T23:00:44.607Z,11.30
2023-04-22T23:03:11.672Z,11.30
2023-04-22T23:05:38.688Z,11.40
2023-04-22T23:08:05.811Z,11.40
2023-04-22T23:10:32.716Z,11.40
2023-04-22T23:12:59.538Z,11.40
2023-04-22T23:15:26.364Z,11.40
2023-04-22T23:17:53.287Z,11.50
2023-04-22T23:20:20.472Z,11.50
2023-04-22T23:22:50.143Z,11.50
2023-04-22T23:25:17.502Z,11.50
2023-04-22T23:27:45.036Z,11.50
2023-04-22T23:30:12.338Z,11.50
2023-04-22T23:32:43.317Z,11.60
2023-04-22T23:35:12.632Z,11.50
2023-04-22T23:37:45.062Z,11.60
2023-04-22T23:40:12.443Z,11.60
2023-04-22T23:42:39.518Z,11.60
2023-04-22T23:45:07.299Z,11.60
2023-04-22T23:47:34.434Z,11.50
2023-04-22T23:50:01.595Z,11.60
2023-04-22T23:52:28.728Z,11.50
2023-04-22T23:54:57.083Z,11.50
2023-04-22T23:57:24.242Z,11.50
2023-04-22T23:59:51.609Z,11.50
